Peshtigo, Wisconsin
Current Conditions -  °F | °C
As of 5:55 PM on Saturday 22 Nov 2014 (Local Time) from KMNM Reporting Station
Overcast Overcast  
Wind Chill: 33°   Ceiling: 700
Heat Index: 37°   Visibility: 4mi
Dew Point: 34°   Wind: 6mph
Humidity: 87%   Direction: 230°SW
Pressure: 29.76"   Gusts: NA
Location:  45.05°N, 87.75°W
Report Text: KMNM 222355Z AUTO 23005KT 4SM OVC007 03/01 A2976 RMK AO1 10030 20020 52003
Loading
Personal Weather Stations






























Interactive Weather Map New forecast layout! Learn more

10-Day Weather Forecast

Advertisements
Track Severe Weather on mobile